Monday, January 21, 2019, 5:44 PM EST
Back to Local

KSMQ, Somerville Somerset Airport

Location: Bedminster, NJ, United States Lat: 40.617
Local Time: 5:44 PM EST (22:44 GMT) Lon: -74.667
Time Zone: US/Eastern Elev: 104 ft

Show me the last for .
Show Decoded

2019-01-21 16:53 METAR KSMQ 212153Z AUTO 31014G26KT 10SM CLR M11/M23 A3023 RMK AO2 PK WND
                 29030/2129 SLP241 T11061228 =
2019-01-21 15:53 METAR KSMQ 212053Z AUTO 31017G27KT 10SM CLR M10/M23 A3018 RMK AO2 PK WND
                 29033/2015 SLP226 T11001228 53019 =
2019-01-21 14:53 METAR KSMQ 211953Z AUTO 32018G27KT 10SM CLR M09/M22 A3015 RMK AO2 PK WND
                 30031/1858 SLP215 T10941222 =
2019-01-21 13:53 METAR KSMQ 211853Z AUTO 30015G27KT 10SM FEW050 M10/M21 A3014 RMK AO2 PK WND
                 31035/1836 SLP211 T11001211 =
2019-01-21 12:53 METAR KSMQ 211753Z AUTO 30015G25KT 260V320 10SM CLR M12/M22 A3013 RMK AO2 PK WND
                 30031/1710 SLP207 T11171217 11106 21156 51010 =
2019-01-21 11:53 METAR KSMQ 211653Z AUTO 30010G26KT 10SM CLR M12/M22 A3012 RMK AO2 PK WND
                 31032/1641 SLP205 T11221222 =
2019-01-21 10:53 METAR KSMQ 211553Z AUTO 30015G26KT 10SM CLR M13/M22 A3012 RMK AO2 PK WND
                 31030/1459 SLP203 T11281222 =
2019-01-21 09:53 METAR KSMQ 211453Z AUTO 30010G28KT 270V340 10SM FEW045 FEW120 M14/M23 A3010 RMK
                 AO2 PK WND 30028/1446 SLP197 T11441233 53035 =
2019-01-21 08:53 METAR KSMQ 211353Z AUTO 29014G28KT 10SM CLR M15/M24 A3006 RMK AO2 PK WND
                 30028/1350 SLP184 T11501239 =
2019-01-21 07:53 METAR KSMQ 211253Z AUTO 30015G27KT 260V330 10SM CLR M16/M24 A3003 RMK AO2 PK WND
                 33033/1158 SLP174 T11561239 =
2019-01-21 06:53 METAR KSMQ 211153Z AUTO 31016G25KT 10SM SCT040 M15/M23 A2999 RMK AO2 PK WND
                 31031/1124 SLP162 70010 T11501228 11117 21150 53027 =
2019-01-21 05:53 METAR KSMQ 211053Z AUTO 30017G27KT 10SM CLR M14/M23 A2996 RMK AO2 PK WND
                 32027/1049 SLP150 T11441228 =
2019-01-21 04:53 METAR KSMQ 210953Z AUTO 30009G21KT 10SM CLR M14/M22 A2993 RMK AO2 PK WND
                 31033/0933 SLP139 T11391222 =
2019-01-21 03:53 METAR KSMQ 210853Z AUTO 31014G26KT 270V340 10SM CLR M13/M21 A2992 RMK AO2 PK WND
                 31031/0803 SLP134 T11331211 51022 =
2019-01-21 02:53 METAR KSMQ 210753Z AUTO 30015G29KT 10SM FEW043 M13/M21 A2991 RMK AO2 PK WND
                 32029/0746 SLP131 T11281206 =
2019-01-21 01:53 METAR KSMQ 210653Z AUTO 31013G23KT 10SM CLR M12/M21 A2988 RMK AO2 PK WND
                 32032/0559 SLP123 T11221206 =
2019-01-21 00:53 METAR KSMQ 210553Z AUTO 31018G25KT 10SM FEW044 M12/M19 A2985 RMK AO2 PK WND
                 30026/0532 SLP111 T11171194 11078 21117 51033 =
2019-01-20 23:53 METAR KSMQ 210453Z AUTO 31015G26KT 10SM OVC042 M11/M18 A2983 RMK AO2 PK WND
                 28030/0355 SLP102 T11061183 400441106 =
2019-01-20 22:53 METAR KSMQ 210353Z AUTO 31014G21KT 10SM SCT037 M10/M17 A2980 RMK AO2 PK WND
                 32031/0257 SLP093 T11001172 =
2019-01-20 21:53 METAR KSMQ 210253Z AUTO 32018G26KT 10SM FEW038 M09/M17 A2975 RMK AO2 PK WND
                 31030/0209 SLP078 T10941167 51027 =
2019-01-20 20:53 METAR KSMQ 210153Z AUTO 32017G30KT 10SM CLR M09/M16 A2972 RMK AO2 PK WND
                 33035/0119 SLP065 T10891161 =
2019-01-20 19:53 METAR KSMQ 210053Z AUTO 31016G28KT 10SM BKN036 M08/M15 A2971 RMK AO2 PK WND
                 32035/0002 SLP063 T10831150 =
2019-01-20 18:53 METAR KSMQ 202353Z AUTO 32022G31KT 10SM BKN035 M08/M14 A2967 RMK AO2 PK WND
                 31034/2312 SLP050 T10781144 10039 21078 51055 =
2019-01-20 17:53 METAR KSMQ 202253Z AUTO 33014G31KT 10SM BKN034 M07/M14 A2963 RMK AO2 PK WND
                 33034/2233 SLP037 T10671139 =

Support USWX by starting your Amazon purchase here.